Time;durP1;ratioP1;P1;durP2;ratioP2;P2;SDS_P1;SDS_P2;PMS_P1;PMS_P2;Temp;Humidity;BMP_temperature;BMP_pressure;BME280_temperature;BME280_humidity;BME280_pressure;Samples;Min_cycle;Max_cycle;Signal;HPM_P1;HPM_P2
2021/06/11 00:01:34;;;;;;;7.82;5.72;;;;;;;18.85;66.50;99345.72;5096766;28;20154;-67
2021/06/11 00:03:59;;;;;;;8.77;6.00;;;;;;;18.85;66.68;99343.72;5096457;28;20032;-69
2021/06/11 00:06:25;;;;;;;8.23;5.97;;;;;;;18.98;66.53;99337.72;5100590;28;20040;-69
2021/06/11 00:08:52;;;;;;;8.10;6.25;;;;;;;19.13;65.84;99336.63;5105840;28;20022;-70
2021/06/11 00:11:18;;;;;;;9.90;5.85;;;;;;;19.24;65.51;99333.81;5100732;28;20047;-70
2021/06/11 00:13:43;;;;;;;10.52;5.10;;;;;;;19.29;64.86;99338.31;5104416;28;20028;-70
2021/06/11 00:16:09;;;;;;;8.98;6.28;;;;;;;19.26;64.76;99325.75;5101829;28;20501;-71
2021/06/11 00:18:34;;;;;;;8.80;6.18;;;;;;;19.25;64.55;99334.66;5109990;28;20482;-70
2021/06/11 00:21:00;;;;;;;9.13;5.68;;;;;;;19.22;64.79;99337.09;5112180;28;20077;-68
2021/06/11 00:23:25;;;;;;;7.53;6.15;;;;;;;19.32;64.62;99334.69;5100028;28;20040;-68
2021/06/11 00:25:51;;;;;;;6.50;5.72;;;;;;;19.32;64.17;99340.38;5099264;28;20116;-69
2021/06/11 00:28:17;;;;;;;8.77;5.82;;;;;;;19.25;64.05;99346.81;5096241;28;20172;-71
2021/06/11 00:30:43;;;;;;;8.40;5.25;;;;;;;19.28;64.47;99339.53;5097755;28;21108;-69
2021/06/11 00:33:09;;;;;;;18.48;6.13;;;;;;;19.34;64.26;99338.75;5101849;28;20042;-68
2021/06/11 00:35:35;;;;;;;12.15;6.10;;;;;;;19.27;64.17;99338.72;5105378;28;20515;-69
2021/06/11 00:38:01;;;;;;;9.52;5.50;;;;;;;19.04;64.58;99336.16;5102950;28;20061;-69
2021/06/11 00:40:27;;;;;;;12.95;5.45;;;;;;;18.80;64.81;99327.09;5091962;28;20477;-70
2021/06/11 00:42:52;;;;;;;7.32;5.32;;;;;;;18.82;65.28;99327.50;5104933;28;20035;-67
2021/06/11 00:45:18;;;;;;;8.70;5.35;;;;;;;18.73;65.54;99332.72;5109146;28;20020;-67
2021/06/11 00:47:45;;;;;;;8.48;5.93;;;;;;;18.74;65.81;99331.50;5105379;28;20039;-69
2021/06/11 00:50:14;;;;;;;11.88;5.88;;;;;;;18.60;65.87;99335.03;5105995;28;20023;-70
2021/06/11 00:52:40;;;;;;;7.10;5.78;;;;;;;18.50;66.00;99331.72;5103679;28;20497;-67
2021/06/11 00:55:06;;;;;;;12.98;6.28;;;;;;;18.52;66.38;99329.34;5110774;28;20023;-70
2021/06/11 00:57:32;;;;;;;8.07;5.57;;;;;;;18.42;66.09;99326.41;5111320;28;20036;-67
2021/06/11 00:59:58;;;;;;;15.77;5.30;;;;;;;18.34;66.58;99328.38;5100820;28;20032;-71
2021/06/11 01:02:23;;;;;;;10.70;5.95;;;;;;;18.30;66.55;99317.00;5097504;28;20115;-69
2021/06/11 01:04:50;;;;;;;9.50;5.18;;;;;;;18.13;67.01;99324.13;5095661;28;20486;-67
2021/06/11 01:07:17;;;;;;;9.95;5.82;;;;;;;18.08;67.44;99322.47;5098598;28;20027;-67
2021/06/11 01:09:44;;;;;;;11.40;5.57;;;;;;;17.94;67.44;99325.97;5092394;28;20115;-66
2021/06/11 01:12:10;;;;;;;12.95;6.05;;;;;;;17.81;68.08;99318.97;5105539;28;20032;-66
2021/06/11 01:14:37;;;;;;;9.50;5.93;;;;;;;17.63;68.33;99324.44;5102929;28;20417;-66
2021/06/11 01:17:03;;;;;;;25.02;7.15;;;;;;;17.47;68.08;99328.28;5109524;28;20039;-66
2021/06/11 01:19:42;;;;;;;12.15;5.88;;;;;;;17.40;68.63;99328.19;5099842;28;20019;-67
2021/06/11 01:22:15;;;;;;;13.57;6.35;;;;;;;17.60;68.45;99330.84;5111901;28;20409;-70
2021/06/11 01:24:55;;;;;;;15.30;6.43;;;;;;;17.64;67.90;99320.41;5111570;28;20526;-65
2021/06/11 01:27:21;;;;;;;8.57;6.13;;;;;;;17.68;67.67;99322.06;5105117;28;20063;-69
2021/06/11 01:29:53;;;;;;;8.63;6.30;;;;;;;17.54;68.26;99316.22;5101537;28;20118;-66
2021/06/11 01:32:19;;;;;;;10.68;7.07;;;;;;;17.47;69.08;99321.81;5097755;28;20035;-70
2021/06/11 01:34:47;;;;;;;12.18;6.18;;;;;;;17.46;69.02;99323.81;5111362;28;20042;-69
2021/06/11 01:37:19;;;;;;;12.68;7.20;;;;;;;17.54;68.94;99319.88;5103801;28;20024;-70
2021/06/11 01:39:51;;;;;;;11.48;6.43;;;;;;;17.55;68.88;99315.03;5106073;28;134800;-66
2021/06/11 01:42:16;;;;;;;11.30;6.68;;;;;;;17.61;68.79;99319.16;5111810;28;20519;-69
2021/06/11 01:44:45;;;;;;;8.73;7.80;;;;;;;17.61;68.75;99321.16;5099334;28;20118;-67
2021/06/11 01:47:13;;;;;;;10.35;7.28;;;;;;;17.52;68.83;99313.81;5094329;28;20489;-69
2021/06/11 01:49:41;;;;;;;8.68;6.22;;;;;;;17.50;69.34;99312.56;5097679;28;20504;-70
2021/06/11 01:52:08;;;;;;;18.13;7.82;;;;;;;17.42;69.88;99313.66;5090642;28;20039;-69
2021/06/11 01:54:34;;;;;;;9.90;6.68;;;;;;;17.33;69.65;99309.16;5094179;28;20024;-70
2021/06/11 01:57:01;;;;;;;10.80;7.22;;;;;;;17.06;70.30;99303.53;5093756;28;20422;-65
2021/06/11 01:59:27;;;;;;;11.68;7.32;;;;;;;16.91;70.32;99298.88;5103746;27;20035;-69
2021/06/11 02:01:54;;;;;;;12.18;6.82;;;;;;;16.77;69.84;99299.47;5106190;28;20031;-66
2021/06/11 02:04:20;;;;;;;11.77;6.22;;;;;;;16.70;69.83;99301.00;5106116;28;20031;-66
2021/06/11 02:06:47;;;;;;;14.85;6.80;;;;;;;16.66;69.91;99313.44;5095664;28;20091;-68
2021/06/11 02:09:13;;;;;;;13.63;6.35;;;;;;;16.56;70.48;99309.28;5094145;28;20513;-65
2021/06/11 02:11:41;;;;;;;14.13;6.68;;;;;;;16.67;70.26;99310.25;5095474;28;20024;-66
2021/06/11 02:14:11;;;;;;;13.25;8.38;;;;;;;16.50;71.26;99317.25;5091356;28;20028;-65
2021/06/11 02:16:37;;;;;;;9.73;7.32;;;;;;;16.63;71.19;99303.72;5098752;28;20040;-66
2021/06/11 02:19:03;;;;;;;15.50;7.45;;;;;;;16.77;70.60;99307.94;5108195;28;20121;-66
2021/06/11 02:21:30;;;;;;;14.30;8.00;;;;;;;16.93;70.08;99305.78;5101782;28;20024;-66
2021/06/11 02:23:56;;;;;;;9.02;6.75;;;;;;;17.07;69.53;99307.19;5110594;28;20032;-66
2021/06/11 02:26:23;;;;;;;11.55;7.93;;;;;;;17.27;68.43;99296.53;5110085;28;20099;-66
2021/06/11 02:28:52;;;;;;;11.25;7.45;;;;;;;17.23;68.88;99304.97;5111289;28;20482;-69
2021/06/11 02:31:21;;;;;;;10.68;7.40;;;;;;;17.43;68.03;99299.16;5100572;28;20044;-70
2021/06/11 02:33:46;;;;;;;22.58;8.07;;;;;;;17.45;67.35;99295.97;5110797;28;20419;-70
2021/06/11 02:36:12;;;;;;;9.68;7.40;;;;;;;17.56;67.81;99301.72;5103026;28;20023;-70
2021/06/11 02:38:38;;;;;;;9.70;7.78;;;;;;;17.66;67.55;99296.16;5102481;28;20511;-70
2021/06/11 02:41:05;;;;;;;14.05;7.50;;;;;;;17.71;66.68;99292.19;5103070;28;20036;-70
2021/06/11 02:43:32;;;;;;;14.00;6.97;;;;;;;17.68;66.74;99295.78;5110845;28;20069;-70
2021/06/11 02:46:10;;;;;;;13.93;7.90;;;;;;;17.69;67.19;99297.41;5094136;28;20032;-70
2021/06/11 02:48:43;;;;;;;10.35;6.97;;;;;;;17.72;67.02;99302.28;5096989;28;20736;-70
2021/06/11 02:51:32;;;;;;;12.18;7.50;;;;;;;17.88;65.89;99295.59;5110841;28;20034;-70
2021/06/11 02:54:00;;;;;;;11.95;7.22;;;;;;;17.92;65.30;99302.91;5109650;28;20020;-70
2021/06/11 02:56:41;;;;;;;12.93;7.05;;;;;;;18.00;65.05;99305.78;5110525;28;20034;-70
2021/06/11 02:59:20;;;;;;;9.80;6.75;;;;;;;17.86;65.08;99307.28;5109979;28;20106;-70
2021/06/11 03:01:52;;;;;;;12.15;6.72;;;;;;;17.94;64.80;99299.69;5110600;28;20036;-70
2021/06/11 03:04:18;;;;;;;7.18;5.63;;;;;;;17.90;64.27;99307.34;5109295;28;20028;-70
2021/06/11 03:06:47;;;;;;;6.13;5.15;;;;;;;17.94;63.75;99305.34;5107557;28;20044;-70
2021/06/11 03:09:15;;;;;;;6.18;4.20;;;;;;;18.04;62.36;99304.66;5101500;28;20070;-70
2021/06/11 03:11:42;;;;;;;8.80;4.68;;;;;;;18.10;62.25;99296.63;5100974;28;20073;-70
2021/06/11 03:14:09;;;;;;;6.35;3.92;;;;;;;18.10;61.65;99294.63;5108248;28;20031;-70
2021/06/11 03:16:36;;;;;;;8.90;5.00;;;;;;;18.02;61.55;99294.91;5106922;28;20035;-70
2021/06/11 03:19:09;;;;;;;5.50;3.90;;;;;;;17.97;60.87;99304.56;5107259;28;20055;-70
2021/06/11 03:21:59;;;;;;;5.00;4.03;;;;;;;17.73;61.29;99306.75;5108845;28;20034;-70
2021/06/11 03:24:36;;;;;;;7.82;4.60;;;;;;;17.38;63.16;99308.00;5110307;28;20081;-71
2021/06/11 03:27:06;;;;;;;8.98;5.65;;;;;;;17.31;64.61;99308.69;5103455;28;20413;-70
2021/06/11 03:29:35;;;;;;;12.43;5.85;;;;;;;17.39;65.39;99315.28;5103878;28;20016;-70
2021/06/11 03:32:05;;;;;;;10.93;6.80;;;;;;;17.24;66.21;99320.72;5110506;28;20473;-70
2021/06/11 03:34:32;;;;;;;;;;;;;;;16.94;67.50;99317.88;5109061;28;20031;-70
2021/06/11 03:37:05;;;;;;;10.35;7.05;;;;;;;16.90;68.53;99320.66;5108696;28;19927;-70
2021/06/11 03:39:35;;;;;;;11.15;7.30;;;;;;;16.84;68.38;99316.53;5109898;28;20044;-70
2021/06/11 03:42:04;;;;;;;16.17;6.68;;;;;;;16.67;68.83;99320.72;5108898;28;20518;-70
2021/06/11 03:44:31;;;;;;;9.23;7.15;;;;;;;16.53;69.92;99324.13;5106846;28;20618;-70
2021/06/11 03:46:58;;;;;;;12.45;6.10;;;;;;;16.40;70.13;99324.34;5108569;28;20059;-70
2021/06/11 03:49:25;;;;;;;11.95;6.80;;;;;;;16.23;70.60;99330.50;5107236;28;20421;-70
2021/06/11 03:51:53;;;;;;;11.18;7.25;;;;;;;16.24;71.40;99337.78;5098811;28;20028;-70
2021/06/11 03:54:20;;;;;;;12.75;6.95;;;;;;;16.37;70.88;99332.78;5110009;28;20019;-70
2021/06/11 03:56:48;;;;;;;15.52;8.27;;;;;;;16.44;70.63;99334.88;5101363;28;20036;-70
2021/06/11 03:59:16;;;;;;;10.77;6.97;;;;;;;16.57;69.92;99333.47;5100837;28;20476;-70
2021/06/11 04:01:51;;;;;;;15.18;7.43;;;;;;;16.68;69.69;99326.00;5099331;28;20034;-69
2021/06/11 04:04:17;;;;;;;10.75;7.15;;;;;;;16.69;69.47;99338.91;5108022;28;20024;-72
2021/06/11 04:06:51;;;;;;;13.63;7.20;;;;;;;16.62;70.35;99335.19;5102025;28;20094;-67
2021/06/11 04:09:23;;;;;;;18.02;8.23;;;;;;;16.65;70.12;99335.22;5100412;28;20024;-66
2021/06/11 04:11:56;;;;;;;16.20;7.90;;;;;;;16.77;69.98;99319.25;5107372;28;20040;-67
2021/06/11 04:14:30;;;;;;;69.55;10.82;;;;;;;16.89;69.23;99319.00;5103680;28;20042;-72
2021/06/11 04:16:57;;;;;;;49.55;9.73;;;;;;;17.09;69.50;99318.91;5102016;27;20035;-69
2021/06/11 04:19:28;;;;;;;12.48;6.93;;;;;;;17.21;68.88;99324.31;5111219;28;20530;-72
2021/06/11 04:21:56;;;;;;;11.35;7.38;;;;;;;17.33;68.41;99328.09;5111893;28;20070;-72
2021/06/11 04:24:28;;;;;;;10.63;7.05;;;;;;;17.02;69.41;99333.75;5113846;28;20028;-70
2021/06/11 04:26:55;;;;;;;11.45;7.47;;;;;;;16.77;70.24;99330.53;5108893;28;20039;-71
2021/06/11 04:29:22;;;;;;;9.68;6.53;;;;;;;16.75;70.50;99332.94;5113660;28;20019;-72
2021/06/11 04:31:52;;;;;;;10.27;8.07;;;;;;;16.70;71.48;99332.06;5113719;28;20431;-73
2021/06/11 04:34:18;;;;;;;12.70;9.13;;;;;;;16.89;70.72;99333.13;5110871;28;20023;-71
2021/06/11 04:36:45;;;;;;;14.88;7.40;;;;;;;16.89;70.01;99327.47;5101626;28;20034;-73
2021/06/11 04:39:12;;;;;;;14.13;7.45;;;;;;;16.81;70.22;99331.44;5101062;28;20047;-74
2021/06/11 04:41:38;;;;;;;18.05;7.35;;;;;;;16.93;69.60;99321.91;5098741;28;20123;-72
2021/06/11 04:44:05;;;;;;;15.38;8.13;;;;;;;16.90;70.19;99326.31;5098371;28;20095;-71
2021/06/11 04:46:31;;;;;;;10.13;7.32;;;;;;;16.90;69.19;99334.78;5102993;28;20039;-70
2021/06/11 04:48:56;;;;;;;9.52;7.35;;;;;;;16.98;69.20;99327.22;5108882;28;20043;-72
2021/06/11 04:51:23;;;;;;;8.18;6.45;;;;;;;16.87;69.22;99334.72;5106549;28;20032;-69
2021/06/11 04:53:48;;;;;;;9.35;6.65;;;;;;;16.88;69.73;99336.34;5101713;28;20466;-72
2021/06/11 04:56:14;;;;;;;12.35;8.25;;;;;;;16.95;70.00;99345.75;5107940;28;20226;-69
2021/06/11 04:58:41;;;;;;;8.90;6.97;;;;;;;16.95;69.29;99347.75;5105018;28;20020;-69
2021/06/11 05:01:07;;;;;;;8.23;7.40;;;;;;;17.00;69.55;99333.34;5108054;28;20032;-67
2021/06/11 05:03:34;;;;;;;8.70;6.80;;;;;;;17.14;69.74;99340.38;5098741;28;20036;-67
2021/06/11 05:06:01;;;;;;;13.63;8.80;;;;;;;17.35;69.41;99337.84;5097221;28;20020;-69
2021/06/11 05:08:26;;;;;;;12.52;7.35;;;;;;;17.50;66.55;99329.53;5097893;28;20421;-67
2021/06/11 05:10:53;;;;;;;11.25;6.90;;;;;;;17.63;65.61;99336.53;5099389;28;20031;-67
2021/06/11 05:13:19;;;;;;;8.52;7.00;;;;;;;17.61;66.41;99340.94;5102718;28;20024;-70
2021/06/11 05:15:44;;;;;;;9.15;6.70;;;;;;;17.80;66.59;99337.16;5105897;28;20042;-71
2021/06/11 05:18:10;;;;;;;11.20;7.15;;;;;;;17.95;67.51;99343.75;5109402;28;20058;-69
2021/06/11 05:20:39;;;;;;;9.52;7.13;;;;;;;18.06;66.63;99341.88;5102661;28;20036;-67
2021/06/11 05:23:06;;;;;;;6.78;6.03;;;;;;;18.15;65.59;99350.03;5109532;28;20504;-71
2021/06/11 05:25:32;;;;;;;10.80;5.68;;;;;;;18.41;65.25;99342.59;5106474;27;20096;-67
2021/06/11 05:27:58;;;;;;;8.00;5.65;;;;;;;18.40;63.61;99346.59;5110477;28;20080;-70
2021/06/11 05:30:25;;;;;;;9.15;5.88;;;;;;;18.53;62.88;99349.97;5108270;28;20044;-71
2021/06/11 05:32:51;;;;;;;6.82;6.13;;;;;;;18.59;64.61;99350.41;5105907;27;20015;-68
2021/06/11 05:35:16;;;;;;;10.45;5.93;;;;;;;18.58;64.09;99352.44;5097337;28;20073;-67
2021/06/11 05:37:42;;;;;;;8.52;6.40;;;;;;;18.97;64.65;99353.09;5106828;28;20056;-68
2021/06/11 05:40:08;;;;;;;9.57;4.50;;;;;;;18.97;63.94;99351.06;5103001;28;20048;-67
2021/06/11 05:42:33;;;;;;;8.15;5.32;;;;;;;19.01;63.57;99351.13;5111998;28;20027;-72
2021/06/11 05:44:59;;;;;;;8.98;5.70;;;;;;;19.08;64.84;99348.34;5111469;28;20494;-71
2021/06/11 05:47:25;;;;;;;9.30;5.60;;;;;;;19.23;62.53;99349.22;5103502;28;20044;-67
2021/06/11 05:49:51;;;;;;;10.02;8.73;;;;;;;19.28;61.92;99354.53;5104359;28;20538;-71
2021/06/11 05:52:17;;;;;;;9.95;6.53;;;;;;;19.38;62.68;99357.81;5109943;28;20485;-71
2021/06/11 05:54:42;;;;;;;6.50;5.85;;;;;;;19.49;62.45;99361.50;5110445;28;20032;-70
2021/06/11 05:57:08;;;;;;;9.63;5.93;;;;;;;19.66;62.14;99365.59;5104133;28;20089;-71
2021/06/11 05:59:33;;;;;;;8.15;4.95;;;;;;;19.72;60.94;99364.00;5095430;28;20039;-71
2021/06/11 06:01:59;;;;;;;10.98;5.03;;;;;;;19.84;60.47;99356.34;5094667;28;20456;-71
2021/06/11 06:04:24;;;;;;;16.75;6.32;;;;;;;19.73;60.05;99361.97;5096046;28;20496;-69
2021/06/11 06:06:50;;;;;;;6.43;4.65;;;;;;;19.80;59.56;99361.22;5099864;28;20036;-69
2021/06/11 06:09:15;;;;;;;6.53;5.30;;;;;;;19.90;58.80;99354.72;5104617;28;20028;-69
2021/06/11 06:11:41;;;;;;;5.65;4.90;;;;;;;20.04;59.16;99351.97;5103555;28;20023;-69
2021/06/11 06:14:08;;;;;;;12.18;4.93;;;;;;;20.16;59.07;99345.09;5100552;28;20028;-69
2021/06/11 06:16:35;;;;;;;9.55;5.28;;;;;;;20.33;57.37;99349.16;5100497;28;20110;-69
2021/06/11 06:19:01;;;;;;;6.72;4.93;;;;;;;20.45;57.18;99349.97;5109779;28;20030;-72
2021/06/11 06:21:29;;;;;;;8.95;4.80;;;;;;;20.57;58.79;99346.72;5111261;28;20028;-69
2021/06/11 06:23:55;;;;;;;5.13;4.53;;;;;;;20.81;56.98;99343.44;5106325;28;20049;-69
2021/06/11 06:26:20;;;;;;;5.75;3.92;;;;;;;20.85;54.90;99347.13;5097094;28;20402;-72
2021/06/11 06:28:46;;;;;;;8.77;4.32;;;;;;;21.07;54.33;99339.38;5110240;28;20742;-72
2021/06/11 06:31:11;;;;;;;9.90;3.90;;;;;;;21.11;54.64;99343.00;5111538;28;20024;-72
2021/06/11 06:33:37;;;;;;;5.30;4.70;;;;;;;21.36;54.61;99342.13;5100732;28;20039;-72
2021/06/11 06:36:02;;;;;;;4.78;4.32;;;;;;;21.49;52.94;99333.94;5096295;28;20027;-70
2021/06/11 06:38:30;;;;;;;7.88;4.70;;;;;;;21.52;53.70;99338.00;5106897;28;20027;-73
2021/06/11 06:41:00;;;;;;;5.43;3.92;;;;;;;21.61;52.51;99338.38;5100549;28;20059;-68
2021/06/11 06:43:26;;;;;;;7.10;4.78;;;;;;;21.78;48.76;99333.00;5094845;28;20039;-68
2021/06/11 06:45:52;;;;;;;5.97;5.07;;;;;;;21.90;49.63;99331.69;5107059;28;20032;-69
2021/06/11 06:48:18;;;;;;;5.38;4.60;;;;;;;21.86;48.69;99334.59;5102438;28;20024;-70
2021/06/11 06:50:43;;;;;;;29.27;4.57;;;;;;;21.99;50.36;99332.06;5100981;28;20024;-68
2021/06/11 06:53:10;;;;;;;5.32;3.80;;;;;;;22.20;48.20;99319.69;5098353;28;20039;-70
2021/06/11 06:55:36;;;;;;;4.82;4.25;;;;;;;22.26;48.25;99322.91;5091020;28;20028;-71
2021/06/11 06:58:01;;;;;;;9.07;5.00;;;;;;;22.44;48.53;99322.75;5090250;28;20050;-69
2021/06/11 07:00:27;;;;;;;12.02;5.22;;;;;;;22.42;49.62;99319.53;5094132;28;20039;-72
2021/06/11 07:02:53;;;;;;;7.40;4.60;;;;;;;22.48;49.20;99319.88;5100797;28;20466;-71
2021/06/11 07:05:19;;;;;;;7.53;4.88;;;;;;;22.61;48.00;99320.22;5097034;28;20290;-71
2021/06/11 07:07:44;;;;;;;4.97;4.57;;;;;;;22.64;49.95;99320.19;5102526;28;20088;-71
2021/06/11 07:10:10;;;;;;;6.35;4.93;;;;;;;22.81;47.98;99323.28;5090243;28;20043;-72
2021/06/11 07:12:36;;;;;;;8.63;5.30;;;;;;;22.81;47.48;99321.25;5104233;28;20031;-71
2021/06/11 07:15:06;;;;;;;5.60;5.07;;;;;;;22.88;49.52;99317.50;5107412;28;20066;-72
2021/06/11 07:17:31;;;;;;;6.40;4.47;;;;;;;22.92;48.05;99311.75;5105801;28;20043;-72
2021/06/11 07:19:57;;;;;;;11.60;4.93;;;;;;;22.92;47.82;99311.75;5097457;28;20032;-70
2021/06/11 07:22:22;;;;;;;7.15;5.32;;;;;;;22.66;49.85;99314.88;5103218;28;20016;-72
2021/06/11 07:24:48;;;;;;;10.20;6.13;;;;;;;22.82;50.00;99314.31;5110428;28;20305;-72
2021/06/11 07:27:13;;;;;;;5.65;5.00;;;;;;;23.05;49.02;99317.72;5107368;28;20039;-72
2021/06/11 07:29:43;;;;;;;7.00;5.75;;;;;;;23.12;48.10;99321.31;5092298;28;20516;-69
2021/06/11 07:32:10;;;;;;;10.15;5.93;;;;;;;23.12;48.32;99320.53;5093980;28;20039;-71
2021/06/11 07:34:36;;;;;;;5.95;5.22;;;;;;;23.02;48.62;99310.03;5092601;28;20036;-72
2021/06/11 07:37:02;;;;;;;7.47;5.25;;;;;;;23.13;47.44;99308.66;5099136;28;20058;-70
2021/06/11 07:39:27;;;;;;;9.93;6.70;;;;;;;23.33;48.18;99310.91;5105226;28;20040;-72
2021/06/11 07:41:54;;;;;;;11.00;6.68;;;;;;;23.22;47.29;99304.50;5103741;28;20497;-72
2021/06/11 07:44:23;;;;;;;8.10;5.28;;;;;;;23.17;48.50;99304.94;5106583;28;20016;-72
2021/06/11 07:46:49;;;;;;;7.80;5.68;;;;;;;23.25;48.72;99304.47;5096331;28;20040;-68
2021/06/11 07:49:15;;;;;;;8.52;6.10;;;;;;;23.39;48.77;99297.78;5101140;28;20082;-70
2021/06/11 07:51:41;;;;;;;7.35;6.05;;;;;;;23.53;49.36;99296.78;5109034;28;20454;-71
2021/06/11 07:54:07;;;;;;;8.65;6.13;;;;;;;23.72;48.13;99300.22;5110725;28;20036;-70
2021/06/11 07:56:33;;;;;;;11.82;6.18;;;;;;;23.68;46.86;99300.25;5102637;28;20036;-69
2021/06/11 07:58:59;;;;;;;8.75;6.10;;;;;;;23.72;45.95;99297.38;5113798;28;20030;-69
2021/06/11 08:01:26;;;;;;;6.57;5.07;;;;;;;23.82;45.91;99299.22;5114122;28;20039;-70
2021/06/11 08:03:52;;;;;;;5.93;5.35;;;;;;;23.97;46.12;99296.97;5105724;28;20024;-69
2021/06/11 08:06:17;;;;;;;7.65;5.88;;;;;;;24.02;48.14;99294.88;5112967;28;20378;-69
2021/06/11 08:08:43;;;;;;;10.27;5.93;;;;;;;24.15;47.24;99286.53;5106049;28;20065;-69
2021/06/11 08:11:08;;;;;;;9.02;5.10;;;;;;;24.27;46.27;99288.78;5109985;28;20027;-69
2021/06/11 08:13:33;;;;;;;6.90;5.45;;;;;;;24.36;47.41;99286.19;5102742;28;20505;-69
2021/06/11 08:15:59;;;;;;;6.72;5.30;;;;;;;24.40;46.14;99277.56;5113434;28;20306;-69
2021/06/11 08:18:24;;;;;;;10.52;4.97;;;;;;;24.47;45.55;99271.69;5112143;28;20029;-69
2021/06/11 08:20:50;;;;;;;7.95;5.25;;;;;;;24.56;46.99;99276.03;5111980;28;20420;-69
2021/06/11 08:23:15;;;;;;;5.15;4.65;;;;;;;24.77;46.16;99275.69;5098074;27;20031;-69
2021/06/11 08:25:41;;;;;;;7.28;4.50;;;;;;;24.80;43.39;99271.16;5103482;28;20035;-70
2021/06/11 08:28:07;;;;;;;5.97;5.40;;;;;;;24.57;47.52;99263.38;5113069;28;20110;-70
2021/06/11 08:30:33;;;;;;;5.60;5.10;;;;;;;24.82;45.79;99265.78;5103441;28;20027;-70
2021/06/11 08:32:59;;;;;;;9.20;5.40;;;;;;;24.88;45.88;99261.16;5101478;28;20072;-70
2021/06/11 08:35:27;;;;;;;10.63;6.32;;;;;;;25.11;43.18;99255.84;5111976;28;20040;-70
2021/06/11 08:37:55;;;;;;;5.47;4.88;;;;;;;25.15;46.41;99253.69;5111828;28;20035;-70
2021/06/11 08:40:20;;;;;;;10.73;4.70;;;;;;;25.41;45.68;99251.09;5103597;28;20040;-70
2021/06/11 08:42:47;;;;;;;6.25;5.10;;;;;;;25.69;42.90;99246.00;5102260;28;20469;-70
2021/06/11 08:45:13;;;;;;;12.13;5.60;;;;;;;25.75;43.61;99238.50;5112969;27;20524;-70
2021/06/11 08:47:43;;;;;;;12.93;5.75;;;;;;;25.94;41.93;99233.94;5103490;28;20039;-71
2021/06/11 08:50:09;;;;;;;8.45;4.53;;;;;;;26.08;39.58;99227.06;5106247;28;20031;-71
2021/06/11 08:52:35;;;;;;;11.40;4.72;;;;;;;26.18;40.64;99228.84;5111487;28;20574;-70
2021/06/11 08:55:00;;;;;;;9.90;5.22;;;;;;;26.32;40.65;99230.56;5112813;28;20031;-71
2021/06/11 08:57:26;;;;;;;8.43;5.13;;;;;;;26.36;40.27;99224.72;5112988;28;20036;-70
2021/06/11 08:59:53;;;;;;;5.25;4.80;;;;;;;26.34;38.61;99222.31;5106848;28;20477;-69
2021/06/11 09:02:19;;;;;;;5.03;4.30;;;;;;;26.01;39.46;99219.47;5111457;28;20155;-69
2021/06/11 09:04:52;;;;;;;5.78;4.20;;;;;;;26.16;41.69;99217.00;5102505;28;20539;-71
2021/06/11 09:07:31;;;;;;;7.00;4.72;;;;;;;26.33;41.19;99217.03;5106993;28;20026;-72
2021/06/11 09:10:06;;;;;;;4.47;4.07;;;;;;;26.02;41.74;99223.13;5105494;28;20362;-71
2021/06/11 09:12:32;;;;;;;11.80;4.55;;;;;;;26.36;39.47;99227.59;5110526;28;20035;-69
2021/06/11 09:15:00;;;;;;;4.90;3.08;;;;;;;26.68;36.63;99230.84;5112544;28;20106;-68
2021/06/11 09:17:48;;;;;;;5.40;3.33;;;;;;;26.77;35.05;99225.28;5101961;28;20469;-68
2021/06/11 09:20:18;;;;;;;8.52;3.38;;;;;;;26.70;34.70;99234.06;5112263;28;20498;-67
2021/06/11 09:22:55;;;;;;;2.75;2.55;;;;;;;26.64;33.39;99233.81;5107800;28;20019;-68
2021/06/11 09:25:45;;;;;;;4.53;2.90;;;;;;;26.63;34.04;99235.06;5099405;28;20035;-71
2021/06/11 09:28:13;;;;;;;2.35;2.15;;;;;;;26.66;31.95;99236.22;5107087;28;20060;-69
2021/06/11 09:30:39;;;;;;;3.10;2.80;;;;;;;26.56;35.52;99241.81;5109713;28;20036;-70
2021/06/11 09:33:12;;;;;;;4.53;4.13;;;;;;;26.83;36.50;99234.13;5112073;28;20110;-68
2021/06/11 09:35:40;;;;;;;9.77;3.63;;;;;;;26.76;39.33;99235.94;5100612;28;20172;-69
2021/06/11 09:38:21;;;;;;;5.68;4.38;;;;;;;26.98;37.96;99237.44;5098753;28;20074;-70
2021/06/11 09:40:58;;;;;;;5.03;4.63;;;;;;;27.04;37.43;99221.25;5111922;28;20056;-71
2021/06/11 09:43:25;;;;;;;6.70;4.53;;;;;;;27.09;40.06;99228.50;5103248;28;20031;-70
2021/06/11 09:46:12;;;;;;;6.05;4.30;;;;;;;27.11;40.53;99223.09;5101570;28;20039;-69
2021/06/11 09:48:45;;;;;;;5.20;4.03;;;;;;;27.20;40.72;99226.13;5111622;28;20024;-70
2021/06/11 09:51:12;;;;;;;6.72;4.45;;;;;;;27.08;42.27;99224.03;5110538;28;20182;-69
2021/06/11 09:53:38;;;;;;;5.47;4.78;;;;;;;27.20;41.57;99223.25;5106367;28;20023;-69
2021/06/11 09:56:03;;;;;;;6.47;4.68;;;;;;;27.07;41.07;99222.41;5106174;28;20418;-70
2021/06/11 09:58:34;;;;;;;7.07;4.35;;;;;;;27.13;40.67;99229.19;5110081;28;20108;-71
2021/06/11 10:01:09;;;;;;;4.25;3.70;;;;;;;27.26;39.77;99235.75;5104248;28;20024;-70
2021/06/11 10:03:37;;;;;;;7.50;3.80;;;;;;;27.43;38.21;99224.19;5095831;28;20133;-69
2021/06/11 10:06:07;;;;;;;6.00;3.95;;;;;;;27.42;41.08;99234.06;5111196;28;20024;-70
2021/06/11 10:08:33;;;;;;;;;;;;;;;27.50;38.98;99228.91;5105751;28;20059;-70
2021/06/11 10:11:02;;;;;;;9.48;6.43;;;;;;;27.26;39.55;99241.50;5110716;28;19923;-69
2021/06/11 10:13:28;;;;;;;5.15;3.63;;;;;;;27.58;35.19;99236.88;5105998;28;20092;-69
2021/06/11 10:15:56;;;;;;;6.40;3.95;;;;;;;27.94;34.80;99229.19;5097607;28;20023;-69
2021/06/11 10:18:22;;;;;;;5.82;4.13;;;;;;;27.87;36.93;99235.16;5109487;28;20072;-70
2021/06/11 10:20:49;;;;;;;5.47;4.10;;;;;;;27.60;39.95;99230.69;5110866;28;20039;-70
2021/06/11 10:23:20;;;;;;;8.77;3.55;;;;;;;27.39;38.85;99227.19;5110860;28;20027;-69
2021/06/11 10:25:51;;;;;;;5.80;3.92;;;;;;;27.30;39.47;99230.72;5110833;28;20035;-69
2021/06/11 10:28:43;;;;;;;4.93;3.50;;;;;;;27.28;39.62;99226.69;5098716;28;20485;-70
2021/06/11 10:31:11;;;;;;;6.63;3.67;;;;;;;27.11;38.70;99223.09;5094697;28;20043;-69
2021/06/11 10:33:46;;;;;;;3.38;3.08;;;;;;;27.54;38.50;99221.84;5109185;28;20038;-69
2021/06/11 10:39:20;;;;;;;4.13;2.03;;;;;;;27.38;36.30;99233.38;5101570;27;20032;-69
2021/06/11 10:42:03;;;;;;;19.23;2.20;;;;;;;27.01;38.46;99233.66;5092749;28;20543;-69
2021/06/11 10:44:32;;;;;;;10.20;2.33;;;;;;;26.92;38.81;99231.44;5104704;28;20035;-69
2021/06/11 10:47:17;;;;;;;6.68;2.03;;;;;;;26.98;39.52;99251.78;5110113;28;20039;-69
2021/06/11 10:50:01;;;;;;;6.35;1.77;;;;;;;26.78;37.46;99235.47;5109751;28;20038;-69
2021/06/11 10:52:42;;;;;;;4.90;1.80;;;;;;;26.41;38.52;99235.66;5101773;28;20027;-69
2021/06/11 10:55:34;;;;;;;2.28;1.90;;;;;;;26.21;40.01;99236.56;5108218;28;20395;-69
2021/06/11 10:58:00;;;;;;;1.83;1.70;;;;;;;26.01;38.94;99235.81;5101395;28;20031;-69
2021/06/11 11:00:36;;;;;;;4.55;1.70;;;;;;;25.95;37.79;99234.78;5099107;28;20032;-69
2021/06/11 11:03:04;;;;;;;5.95;1.80;;;;;;;25.77;39.84;99231.09;5093907;28;20024;-69
2021/06/11 11:05:34;;;;;;;3.17;2.17;;;;;;;25.78;40.96;99223.28;5096021;28;20068;-69
2021/06/11 11:08:05;;;;;;;3.60;1.95;;;;;;;25.63;41.03;99212.19;5100492;28;20039;-70
2021/06/11 11:10:47;;;;;;;3.22;2.33;;;;;;;25.67;40.88;99225.59;5100646;28;20040;-69
2021/06/11 11:13:13;;;;;;;3.13;2.00;;;;;;;25.75;40.54;99218.44;5089961;28;20476;-69
2021/06/11 11:15:46;;;;;;;1.77;1.67;;;;;;;25.57;40.86;99216.81;5098457;28;20444;-69
2021/06/11 11:18:20;;;;;;;6.88;1.85;;;;;;;25.87;40.76;99216.94;5103174;28;20120;-69
2021/06/11 11:20:45;;;;;;;3.03;1.85;;;;;;;25.95;41.47;99211.84;5100616;28;20118;-69
2021/06/11 11:23:14;;;;;;;2.85;1.65;;;;;;;25.96;40.57;99230.66;5103153;28;20459;-72
2021/06/11 11:25:42;;;;;;;4.80;1.45;;;;;;;25.89;39.61;99240.22;5105308;28;20052;-73
2021/06/11 11:28:09;;;;;;;1.83;1.38;;;;;;;25.88;38.20;99250.88;5102922;28;20015;-72
2021/06/11 11:30:35;;;;;;;5.18;1.45;;;;;;;25.73;39.71;99255.31;5104314;28;20043;-71
2021/06/11 11:33:03;;;;;;;4.28;1.48;;;;;;;25.64;38.56;99268.19;5096560;28;20039;-71
2021/06/11 11:35:31;;;;;;;6.72;1.70;;;;;;;24.95;38.77;99286.78;5110357;28;20028;-71
2021/06/11 11:37:59;;;;;;;2.05;1.48;;;;;;;24.77;41.97;99303.47;5101265;28;20058;-71
2021/06/11 11:40:26;;;;;;;5.35;1.88;;;;;;;23.90;45.22;99317.09;5102027;28;20378;-71